sensor_id;sensor_type;location;lat;lon;timestamp;pressure;altitude;pressure_sealevel;temperature;humidity
36798;BME280;22748;8.426;99.512;2023-02-28T00:01:47;101164.16;;;28.39;58.66
36798;BME280;22748;8.426;99.512;2023-02-28T00:04:19;101170.75;;;28.37;58.40
36798;BME280;22748;8.426;99.512;2023-02-28T00:06:50;101169.28;;;28.34;58.69
36798;BME280;22748;8.426;99.512;2023-02-28T00:09:24;101178.56;;;28.31;58.78
36798;BME280;22748;8.426;99.512;2023-02-28T00:11:55;101173.38;;;28.30;58.92
36798;BME280;22748;8.426;99.512;2023-02-28T00:14:25;101168.19;;;28.28;59.27
36798;BME280;22748;8.426;99.512;2023-02-28T00:17:00;101176.25;;;28.28;59.20
36798;BME280;22748;8.426;99.512;2023-02-28T00:19:33;101180.97;;;28.26;59.28
36798;BME280;22748;8.426;99.512;2023-02-28T00:22:04;101175.34;;;28.21;59.50
36798;BME280;22748;8.426;99.512;2023-02-28T00:24:40;101175.94;;;28.17;59.25
36798;BME280;22748;8.426;99.512;2023-02-28T00:27:11;101172.34;;;28.09;59.81
36798;BME280;22748;8.426;99.512;2023-02-28T00:29:42;101179.56;;;28.09;59.74
36798;BME280;22748;8.426;99.512;2023-02-28T00:32:12;101176.03;;;28.08;59.70
36798;BME280;22748;8.426;99.512;2023-02-28T00:34:45;101175.41;;;28.06;60.13
36798;BME280;22748;8.426;99.512;2023-02-28T00:37:15;101171.88;;;28.06;60.06
36798;BME280;22748;8.426;99.512;2023-02-28T00:39:47;101174.41;;;28.07;60.03
36798;BME280;22748;8.426;99.512;2023-02-28T00:42:18;101181.81;;;28.05;60.51
36798;BME280;22748;8.426;99.512;2023-02-28T00:44:48;101172.72;;;28.06;60.06
36798;BME280;22748;8.426;99.512;2023-02-28T00:47:19;101177.84;;;28.01;60.25
36798;BME280;22748;8.426;99.512;2023-02-28T00:49:52;101178.47;;;28.03;60.65
36798;BME280;22748;8.426;99.512;2023-02-28T00:52:23;101179.75;;;28.07;60.74
36798;BME280;22748;8.426;99.512;2023-02-28T00:54:53;101180.00;;;28.13;60.46
36798;BME280;22748;8.426;99.512;2023-02-28T00:57:29;101187.72;;;28.16;60.50
36798;BME280;22748;8.426;99.512;2023-02-28T01:00:05;101187.72;;;28.16;60.85
36798;BME280;22748;8.426;99.512;2023-02-28T01:02:38;101198.69;;;28.21;60.94
36798;BME280;22748;8.426;99.512;2023-02-28T01:05:14;101196.19;;;28.19;60.87
36798;BME280;22748;8.426;99.512;2023-02-28T01:07:45;101201.00;;;28.24;60.65
36798;BME280;22748;8.426;99.512;2023-02-28T01:10:18;101207.00;;;28.26;60.72
36798;BME280;22748;8.426;99.512;2023-02-28T01:12:49;101204.78;;;28.29;60.92
36798;BME280;22748;8.426;99.512;2023-02-28T01:15:20;101205.25;;;28.33;60.80
36798;BME280;22748;8.426;99.512;2023-02-28T01:17:51;101215.59;;;28.36;60.72
36798;BME280;22748;8.426;99.512;2023-02-28T01:20:23;101208.16;;;28.38;60.45
36798;BME280;22748;8.426;99.512;2023-02-28T01:22:54;101209.81;;;28.39;60.34
36798;BME280;22748;8.426;99.512;2023-02-28T01:25:25;101214.81;;;28.42;60.44
36798;BME280;22748;8.426;99.512;2023-02-28T01:27:56;101215.06;;;28.47;60.68
36798;BME280;22748;8.426;99.512;2023-02-28T01:30:27;101220.72;;;28.52;60.07
36798;BME280;22748;8.426;99.512;2023-02-28T01:32:59;101217.66;;;28.56;60.09
36798;BME280;22748;8.426;99.512;2023-02-28T01:35:32;101212.94;;;28.58;60.01
36798;BME280;22748;8.426;99.512;2023-02-28T01:38:02;101217.91;;;28.61;59.85
36798;BME280;22748;8.426;99.512;2023-02-28T01:40:32;101221.22;;;28.63;59.43
36798;BME280;22748;8.426;99.512;2023-02-28T01:43:04;101222.91;;;28.64;59.61
36798;BME280;22748;8.426;99.512;2023-02-28T01:45:36;101230.41;;;28.68;59.14
36798;BME280;22748;8.426;99.512;2023-02-28T01:48:09;101222.97;;;28.70;58.80
36798;BME280;22748;8.426;99.512;2023-02-28T01:50:45;101222.97;;;28.70;59.00
36798;BME280;22748;8.426;99.512;2023-02-28T01:53:21;101227.50;;;28.70;58.80
36798;BME280;22748;8.426;99.512;2023-02-28T01:55:54;101226.47;;;28.71;58.79
36798;BME280;22748;8.426;99.512;2023-02-28T01:58:25;101225.44;;;28.72;59.06
36798;BME280;22748;8.426;99.512;2023-02-28T02:00:56;101224.25;;;28.75;59.39
36798;BME280;22748;8.426;99.512;2023-02-28T02:03:27;101224.69;;;28.78;59.10
36798;BME280;22748;8.426;99.512;2023-02-28T02:05:59;101224.31;;;28.81;58.70
36798;BME280;22748;8.426;99.512;2023-02-28T02:08:30;101224.53;;;28.86;58.87
36798;BME280;22748;8.426;99.512;2023-02-28T02:11:02;101222.50;;;28.88;59.21
36798;BME280;22748;8.426;99.512;2023-02-28T02:13:55;101218.19;;;28.94;58.68
36798;BME280;22748;8.426;99.512;2023-02-28T02:16:41;101229.66;;;29.03;58.67
36798;BME280;22748;8.426;99.512;2023-02-28T02:19:39;101226.56;;;29.06;58.77
36798;BME280;22748;8.426;99.512;2023-02-28T02:22:56;101232.56;;;29.08;58.80
36798;BME280;22748;8.426;99.512;2023-02-28T02:25:33;101230.69;;;29.08;58.47
36798;BME280;22748;8.426;99.512;2023-02-28T02:28:22;101233.28;;;29.17;58.52
36798;BME280;22748;8.426;99.512;2023-02-28T02:31:12;101232.88;;;29.20;58.39
36798;BME280;22748;8.426;99.512;2023-02-28T02:37:02;101233.31;;;29.23;58.61
36798;BME280;22748;8.426;99.512;2023-02-28T02:39:44;101234.59;;;29.27;58.25
36798;BME280;22748;8.426;99.512;2023-02-28T02:42:23;101232.78;;;29.35;58.32
36798;BME280;22748;8.426;99.512;2023-02-28T02:45:04;101237.19;;;29.42;57.94
36798;BME280;22748;8.426;99.512;2023-02-28T02:47:38;101237.59;;;29.46;58.05
36798;BME280;22748;8.426;99.512;2023-02-28T02:50:16;101248.59;;;29.51;58.22
36798;BME280;22748;8.426;99.512;2023-02-28T02:52:55;101243.84;;;29.53;57.97
36798;BME280;22748;8.426;99.512;2023-02-28T02:55:28;101239.31;;;29.53;57.86
36798;BME280;22748;8.426;99.512;2023-02-28T02:58:03;101237.38;;;29.41;57.33
36798;BME280;22748;8.426;99.512;2023-02-28T03:00:37;101232.97;;;29.33;57.61
36798;BME280;22748;8.426;99.512;2023-02-28T03:03:11;101238.38;;;29.40;57.69
36798;BME280;22748;8.426;99.512;2023-02-28T03:05:46;101235.50;;;29.41;57.21
36798;BME280;22748;8.426;99.512;2023-02-28T03:08:19;101228.13;;;29.57;56.88
36798;BME280;22748;8.426;99.512;2023-02-28T03:10:51;101230.22;;;29.61;56.90
36798;BME280;22748;8.426;99.512;2023-02-28T03:13:39;101231.91;;;29.62;56.67
36798;BME280;22748;8.426;99.512;2023-02-28T03:16:32;101229.91;;;29.71;56.42
36798;BME280;22748;8.426;99.512;2023-02-28T03:19:17;101224.34;;;29.79;56.08
36798;BME280;22748;8.426;99.512;2023-02-28T03:22:02;101233.91;;;29.88;56.42
36798;BME280;22748;8.426;99.512;2023-02-28T03:24:43;101227.28;;;29.91;55.90
36798;BME280;22748;8.426;99.512;2023-02-28T03:27:19;101227.09;;;29.92;56.32
36798;BME280;22748;8.426;99.512;2023-02-28T03:29:58;101224.63;;;30.04;55.99
36798;BME280;22748;8.426;99.512;2023-02-28T03:32:35;101224.44;;;30.12;55.43
36798;BME280;22748;8.426;99.512;2023-02-28T03:35:11;101218.66;;;30.15;55.61
36798;BME280;22748;8.426;99.512;2023-02-28T03:37:51;101215.56;;;30.19;54.84
36798;BME280;22748;8.426;99.512;2023-02-28T03:40:26;101208.09;;;30.21;55.38
36798;BME280;22748;8.426;99.512;2023-02-28T03:43:01;101199.84;;;30.29;55.10
36798;BME280;22748;8.426;99.512;2023-02-28T03:45:36;101200.28;;;30.32;55.04
36798;BME280;22748;8.426;99.512;2023-02-28T03:48:11;101196.13;;;30.37;54.80
36798;BME280;22748;8.426;99.512;2023-02-28T03:50:46;101188.66;;;30.39;54.38
36798;BME280;22748;8.426;99.512;2023-02-28T03:53:21;101188.47;;;30.40;55.17
36798;BME280;22748;8.426;99.512;2023-02-28T03:56:05;101184.53;;;30.43;55.11
36798;BME280;22748;8.426;99.512;2023-02-28T03:58:44;101188.25;;;30.48;54.85
36798;BME280;22748;8.426;99.512;2023-02-28T04:01:20;101185.78;;;30.53;54.06
36798;BME280;22748;8.426;99.512;2023-02-28T04:03:52;101180.59;;;30.59;54.01
36798;BME280;22748;8.426;99.512;2023-02-28T04:06:23;101169.38;;;30.62;53.96
36798;BME280;22748;8.426;99.512;2023-02-28T04:08:52;101167.31;;;30.64;53.96
36798;BME280;22748;8.426;99.512;2023-02-28T04:11:29;101168.78;;;30.66;53.45
36798;BME280;22748;8.426;99.512;2023-02-28T04:14:02;101158.00;;;30.66;53.28
36798;BME280;22748;8.426;99.512;2023-02-28T04:16:35;101150.75;;;30.67;53.71
36798;BME280;22748;8.426;99.512;2023-02-28T04:19:07;101154.25;;;30.67;53.29
36798;BME280;22748;8.426;99.512;2023-02-28T04:21:41;101155.06;;;30.68;52.89
36798;BME280;22748;8.426;99.512;2023-02-28T04:24:13;101151.13;;;30.64;53.21
36798;BME280;22748;8.426;99.512;2023-02-28T04:26:47;101141.81;;;30.73;52.65
36798;BME280;22748;8.426;99.512;2023-02-28T04:29:22;101145.56;;;30.59;52.35
36798;BME280;22748;8.426;99.512;2023-02-28T04:31:53;101142.66;;;30.67;52.01
36798;BME280;22748;8.426;99.512;2023-02-28T04:34:26;101131.41;;;30.76;51.44
36798;BME280;22748;8.426;99.512;2023-02-28T04:36:57;101133.09;;;30.84;51.24
36798;BME280;22748;8.426;99.512;2023-02-28T04:39:28;101120.22;;;30.93;50.66
36798;BME280;22748;8.426;99.512;2023-02-28T04:42:00;101115.66;;;30.93;51.49
36798;BME280;22748;8.426;99.512;2023-02-28T04:44:29;101115.47;;;30.95;51.59
36798;BME280;22748;8.426;99.512;2023-02-28T04:47:03;101114.81;;;31.00;50.39
36798;BME280;22748;8.426;99.512;2023-02-28T04:49:33;101110.09;;;30.88;50.11
36798;BME280;22748;8.426;99.512;2023-02-28T04:52:04;101103.84;;;30.88;49.69
36798;BME280;22748;8.426;99.512;2023-02-28T04:54:36;101093.06;;;30.88;50.15
36798;BME280;22748;8.426;99.512;2023-02-28T04:57:10;101091.22;;;30.88;49.68
36798;BME280;22748;8.426;99.512;2023-02-28T04:59:41;101089.53;;;30.87;49.36
36798;BME280;22748;8.426;99.512;2023-02-28T05:02:11;101093.91;;;30.88;49.71
36798;BME280;22748;8.426;99.512;2023-02-28T05:04:42;101084.56;;;30.91;49.82
36798;BME280;22748;8.426;99.512;2023-02-28T05:07:24;101080.59;;;30.93;49.68
36798;BME280;22748;8.426;99.512;2023-02-28T05:10:03;101081.41;;;31.01;49.38
36798;BME280;22748;8.426;99.512;2023-02-28T05:12:40;101080.63;;;30.87;48.82
36798;BME280;22748;8.426;99.512;2023-02-28T05:15:13;101076.47;;;30.91;49.49
36798;BME280;22748;8.426;99.512;2023-02-28T05:17:45;101082.47;;;30.93;49.36
36798;BME280;22748;8.426;99.512;2023-02-28T05:20:16;101079.34;;;30.96;49.39
36798;BME280;22748;8.426;99.512;2023-02-28T05:22:46;101067.91;;;31.01;49.64
36798;BME280;22748;8.426;99.512;2023-02-28T05:25:19;101070.19;;;31.04;49.49
36798;BME280;22748;8.426;99.512;2023-02-28T05:27:54;101069.78;;;31.00;49.41
36798;BME280;22748;8.426;99.512;2023-02-28T05:30:25;101067.47;;;31.10;49.14
36798;BME280;22748;8.426;99.512;2023-02-28T05:32:55;101065.78;;;31.16;49.90
36798;BME280;22748;8.426;99.512;2023-02-28T05:35:26;101062.06;;;31.17;49.94
36798;BME280;22748;8.426;99.512;2023-02-28T05:37:56;101055.19;;;31.21;48.91
36798;BME280;22748;8.426;99.512;2023-02-28T05:40:27;101052.66;;;31.26;49.10
36798;BME280;22748;8.426;99.512;2023-02-28T05:43:00;101046.63;;;31.31;49.24
36798;BME280;22748;8.426;99.512;2023-02-28T05:45:30;101039.94;;;31.33;49.05
36798;BME280;22748;8.426;99.512;2023-02-28T05:48:14;101038.09;;;31.34;48.94
36798;BME280;22748;8.426;99.512;2023-02-28T05:50:46;101033.69;;;31.40;48.77
36798;BME280;22748;8.426;99.512;2023-02-28T05:53:17;101025.44;;;31.34;48.32
36798;BME280;22748;8.426;99.512;2023-02-28T05:55:48;101020.50;;;31.25;48.68
36798;BME280;22748;8.426;99.512;2023-02-28T05:58:21;101013.84;;;31.27;48.44
36798;BME280;22748;8.426;99.512;2023-02-28T06:00:56;101008.00;;;31.30;48.41
36798;BME280;22748;8.426;99.512;2023-02-28T06:03:31;101011.50;;;31.37;48.08
36798;BME280;22748;8.426;99.512;2023-02-28T06:06:07;101005.06;;;31.39;47.97
36798;BME280;22748;8.426;99.512;2023-02-28T06:08:43;100996.72;;;31.40;48.10
36798;BME280;22748;8.426;99.512;2023-02-28T06:11:14;100987.81;;;31.46;48.02
36798;BME280;22748;8.426;99.512;2023-02-28T06:13:46;100983.81;;;31.55;47.85
36798;BME280;22748;8.426;99.512;2023-02-28T06:16:17;100985.91;;;31.53;47.91
36798;BME280;22748;8.426;99.512;2023-02-28T06:18:48;100988.16;;;31.56;48.29
36798;BME280;22748;8.426;99.512;2023-02-28T06:21:19;100985.00;;;31.60;48.40
36798;BME280;22748;8.426;99.512;2023-02-28T06:23:50;100979.59;;;31.66;48.21
36798;BME280;22748;8.426;99.512;2023-02-28T06:26:20;100975.78;;;31.74;47.56
36798;BME280;22748;8.426;99.512;2023-02-28T06:28:52;100974.28;;;31.78;47.65
36798;BME280;22748;8.426;99.512;2023-02-28T06:31:24;100964.31;;;31.78;47.94
36798;BME280;22748;8.426;99.512;2023-02-28T06:33:56;100966.59;;;31.82;47.89
36798;BME280;22748;8.426;99.512;2023-02-28T06:36:27;100964.31;;;31.78;47.73
36798;BME280;22748;8.426;99.512;2023-02-28T06:38:58;100952.53;;;31.73;47.94
36798;BME280;22748;8.426;99.512;2023-02-28T06:41:28;100951.63;;;31.79;47.43
36798;BME280;22748;8.426;99.512;2023-02-28T06:44:00;100949.91;;;31.85;46.91
36798;BME280;22748;8.426;99.512;2023-02-28T06:46:30;100944.47;;;31.91;47.00
36798;BME280;22748;8.426;99.512;2023-02-28T06:49:01;100940.69;;;31.99;46.48
36798;BME280;22748;8.426;99.512;2023-02-28T06:51:33;100932.13;;;32.02;46.50
36798;BME280;22748;8.426;99.512;2023-02-28T06:54:04;100924.84;;;32.03;46.75
36798;BME280;22748;8.426;99.512;2023-02-28T06:56:36;100919.44;;;32.03;46.33
36798;BME280;22748;8.426;99.512;2023-02-28T06:59:08;100921.34;;;31.95;46.84
36798;BME280;22748;8.426;99.512;2023-02-28T07:01:39;100911.19;;;31.97;46.56
36798;BME280;22748;8.426;99.512;2023-02-28T07:04:10;100910.72;;;32.01;46.33
36798;BME280;22748;8.426;99.512;2023-02-28T07:06:40;100916.38;;;31.99;46.69
36798;BME280;22748;8.426;99.512;2023-02-28T07:09:10;100902.34;;;32.09;46.75
36798;BME280;22748;8.426;99.512;2023-02-28T07:11:41;100904.00;;;32.10;46.30
36798;BME280;22748;8.426;99.512;2023-02-28T07:14:16;100900.78;;;32.01;46.17
36798;BME280;22748;8.426;99.512;2023-02-28T07:16:46;100902.31;;;31.90;46.34
36798;BME280;22748;8.426;99.512;2023-02-28T07:19:25;100898.75;;;31.90;46.49
36798;BME280;22748;8.426;99.512;2023-02-28T07:21:57;100894.13;;;31.97;46.96
36798;BME280;22748;8.426;99.512;2023-02-28T07:24:27;100883.88;;;32.06;46.69
36798;BME280;22748;8.426;99.512;2023-02-28T07:26:58;100877.19;;;32.08;46.80
36798;BME280;22748;8.426;99.512;2023-02-28T07:29:31;100875.72;;;32.12;46.68
36798;BME280;22748;8.426;99.512;2023-02-28T07:32:02;100883.56;;;32.14;46.85
36798;BME280;22748;8.426;99.512;2023-02-28T07:34:33;100878.75;;;32.16;46.97
36798;BME280;22748;8.426;99.512;2023-02-28T07:37:04;100873.97;;;32.18;47.16
36798;BME280;22748;8.426;99.512;2023-02-28T07:39:35;100876.44;;;32.20;46.94
36798;BME280;22748;8.426;99.512;2023-02-28T07:42:05;100867.28;;;32.21;47.42
36798;BME280;22748;8.426;99.512;2023-02-28T07:44:41;100867.88;;;32.23;47.19
36798;BME280;22748;8.426;99.512;2023-02-28T07:47:13;100862.72;;;32.21;47.01
36798;BME280;22748;8.426;99.512;2023-02-28T07:49:42;100859.50;;;32.12;47.08
36798;BME280;22748;8.426;99.512;2023-02-28T07:52:12;100861.50;;;32.17;47.01
36798;BME280;22748;8.426;99.512;2023-02-28T07:54:47;100856.13;;;32.17;46.98
36798;BME280;22748;8.426;99.512;2023-02-28T07:57:17;100843.41;;;32.17;47.29
36798;BME280;22748;8.426;99.512;2023-02-28T07:59:49;100846.50;;;32.21;47.30
36798;BME280;22748;8.426;99.512;2023-02-28T08:02:20;100854.16;;;32.24;47.32
36798;BME280;22748;8.426;99.512;2023-02-28T08:04:50;100848.97;;;32.23;47.26
36798;BME280;22748;8.426;99.512;2023-02-28T08:07:20;100853.09;;;32.25;47.00
36798;BME280;22748;8.426;99.512;2023-02-28T08:09:50;100852.03;;;32.26;47.29
36798;BME280;22748;8.426;99.512;2023-02-28T08:12:21;100856.94;;;32.17;47.53
36798;BME280;22748;8.426;99.512;2023-02-28T08:14:52;100849.88;;;32.16;47.22
36798;BME280;22748;8.426;99.512;2023-02-28T08:17:24;100856.31;;;32.15;47.19
36798;BME280;22748;8.426;99.512;2023-02-28T08:19:54;100854.00;;;32.19;47.33
36798;BME280;22748;8.426;99.512;2023-02-28T08:22:24;100846.13;;;32.17;47.11
36798;BME280;22748;8.426;99.512;2023-02-28T08:24:57;100851.69;;;32.04;47.33
36798;BME280;22748;8.426;99.512;2023-02-28T08:27:27;100844.78;;;32.08;47.43
36798;BME280;22748;8.426;99.512;2023-02-28T08:29:58;100848.22;;;32.15;47.18
36798;BME280;22748;8.426;99.512;2023-02-28T08:32:28;100847.78;;;32.18;47.33
36798;BME280;22748;8.426;99.512;2023-02-28T08:34:58;100843.88;;;32.14;47.32
36798;BME280;22748;8.426;99.512;2023-02-28T08:37:30;100847.78;;;32.18;47.27
36798;BME280;22748;8.426;99.512;2023-02-28T08:40:00;100841.19;;;32.14;47.10
36798;BME280;22748;8.426;99.512;2023-02-28T08:42:32;100836.38;;;32.16;47.41
36798;BME280;22748;8.426;99.512;2023-02-28T08:45:07;100831.72;;;32.05;47.08
36798;BME280;22748;8.426;99.512;2023-02-28T08:47:43;100827.97;;;32.06;47.15
36798;BME280;22748;8.426;99.512;2023-02-28T08:50:12;100826.69;;;31.90;47.25
36798;BME280;22748;8.426;99.512;2023-02-28T08:52:45;100821.03;;;31.92;47.38
36798;BME280;22748;8.426;99.512;2023-02-28T08:55:17;100829.59;;;32.07;47.15
36798;BME280;22748;8.426;99.512;2023-02-28T08:57:49;100823.38;;;32.07;47.55
36798;BME280;22748;8.426;99.512;2023-02-28T09:00:23;100828.41;;;32.03;48.16
36798;BME280;22748;8.426;99.512;2023-02-28T09:02:55;100830.06;;;32.04;48.10
36798;BME280;22748;8.426;99.512;2023-02-28T09:05:25;100831.56;;;32.00;47.81
36798;BME280;22748;8.426;99.512;2023-02-28T09:07:58;100835.78;;;32.14;48.37
36798;BME280;22748;8.426;99.512;2023-02-28T09:10:29;100833.91;;;32.15;48.18
36798;BME280;22748;8.426;99.512;2023-02-28T09:13:00;100830.63;;;32.25;47.85
36798;BME280;22748;8.426;99.512;2023-02-28T09:15:43;100841.00;;;32.28;47.92
36798;BME280;22748;8.426;99.512;2023-02-28T09:18:16;100835.75;;;32.33;48.14
36798;BME280;22748;8.426;99.512;2023-02-28T09:20:47;100843.41;;;32.36;47.84
36798;BME280;22748;8.426;99.512;2023-02-28T09:23:17;100847.63;;;32.32;48.27
36798;BME280;22748;8.426;99.512;2023-02-28T09:25:48;100843.84;;;32.33;48.46
36798;BME280;22748;8.426;99.512;2023-02-28T09:28:19;100839.50;;;32.32;48.39
36798;BME280;22748;8.426;99.512;2023-02-28T09:30:55;100829.75;;;32.31;48.35
36798;BME280;22748;8.426;99.512;2023-02-28T09:33:26;100840.75;;;32.29;48.28
36798;BME280;22748;8.426;99.512;2023-02-28T09:36:01;100849.47;;;32.31;48.38
36798;BME280;22748;8.426;99.512;2023-02-28T09:38:39;100854.22;;;32.36;48.39
36798;BME280;22748;8.426;99.512;2023-02-28T09:41:14;100848.81;;;32.36;48.21
36798;BME280;22748;8.426;99.512;2023-02-28T09:43:47;100842.44;;;32.30;48.28
36798;BME280;22748;8.426;99.512;2023-02-28T09:46:33;100847.03;;;32.30;48.34
36798;BME280;22748;8.426;99.512;2023-02-28T09:49:06;100845.22;;;32.24;48.65
36798;BME280;22748;8.426;99.512;2023-02-28T09:51:57;100846.72;;;32.20;48.09
36798;BME280;22748;8.426;99.512;2023-02-28T09:54:31;100847.38;;;32.33;47.78
36798;BME280;22748;8.426;99.512;2023-02-28T09:57:08;100842.47;;;32.42;47.69
36798;BME280;22748;8.426;99.512;2023-02-28T09:59:59;100847.44;;;32.45;47.63
36798;BME280;22748;8.426;99.512;2023-02-28T10:03:00;100844.28;;;32.48;47.65
36798;BME280;22748;8.426;99.512;2023-02-28T10:05:41;100847.53;;;32.38;47.70
36798;BME280;22748;8.426;99.512;2023-02-28T10:08:15;100848.88;;;32.29;47.86
36798;BME280;22748;8.426;99.512;2023-02-28T10:10:50;100849.81;;;32.23;48.01
36798;BME280;22748;8.426;99.512;2023-02-28T10:13:26;100850.75;;;32.29;47.95
36798;BME280;22748;8.426;99.512;2023-02-28T10:15:58;100848.81;;;32.36;47.82
36798;BME280;22748;8.426;99.512;2023-02-28T10:18:40;100848.13;;;32.41;48.06
36798;BME280;22748;8.426;99.512;2023-02-28T10:21:19;100849.91;;;32.47;48.11
36798;BME280;22748;8.426;99.512;2023-02-28T10:23:56;100855.09;;;32.48;47.88
36798;BME280;22748;8.426;99.512;2023-02-28T10:26:31;100854.50;;;32.46;48.26
36798;BME280;22748;8.426;99.512;2023-02-28T10:29:02;100862.63;;;32.28;48.44
36798;BME280;22748;8.426;99.512;2023-02-28T10:31:33;100867.56;;;32.31;48.18
36798;BME280;22748;8.426;99.512;2023-02-28T10:34:05;100870.66;;;32.34;48.12
36798;BME280;22748;8.426;99.512;2023-02-28T10:36:36;100869.16;;;32.38;48.10
36798;BME280;22748;8.426;99.512;2023-02-28T10:39:37;100885.81;;;32.35;48.24
36798;BME280;22748;8.426;99.512;2023-02-28T10:42:20;100893.69;;;32.37;47.89
36798;BME280;22748;8.426;99.512;2023-02-28T10:45:12;100891.09;;;32.30;48.02
36798;BME280;22748;8.426;99.512;2023-02-28T10:47:54;100888.75;;;32.34;48.11
36798;BME280;22748;8.426;99.512;2023-02-28T10:50:51;100886.88;;;32.34;48.01
36798;BME280;22748;8.426;99.512;2023-02-28T10:53:39;100889.19;;;32.31;47.75
36798;BME280;22748;8.426;99.512;2023-02-28T10:56:18;100902.09;;;32.29;47.50
36798;BME280;22748;8.426;99.512;2023-02-28T10:58:53;100899.19;;;32.30;47.80
36798;BME280;22748;8.426;99.512;2023-02-28T11:01:34;100898.38;;;32.30;47.80
36798;BME280;22748;8.426;99.512;2023-02-28T11:04:32;100890.94;;;32.25;47.78
36798;BME280;22748;8.426;99.512;2023-02-28T11:07:10;100895.50;;;32.25;47.40
36798;BME280;22748;8.426;99.512;2023-02-28T11:09:50;100898.06;;;32.20;47.53
36798;BME280;22748;8.426;99.512;2023-02-28T11:12:26;100899.41;;;32.10;48.01
36798;BME280;22748;8.426;99.512;2023-02-28T11:15:02;100898.97;;;32.13;47.98
36798;BME280;22748;8.426;99.512;2023-02-28T11:17:43;100913.53;;;32.12;48.06
36798;BME280;22748;8.426;99.512;2023-02-28T11:20:22;100926.44;;;32.10;48.00
36798;BME280;22748;8.426;99.512;2023-02-28T11:22:57;100927.66;;;32.14;47.93
36798;BME280;22748;8.426;99.512;2023-02-28T11:25:32;100929.06;;;32.17;48.26
36798;BME280;22748;8.426;99.512;2023-02-28T11:28:04;100930.50;;;32.20;48.31
36798;BME280;22748;8.426;99.512;2023-02-28T11:30:39;100937.84;;;32.12;48.39
36798;BME280;22748;8.426;99.512;2023-02-28T11:33:27;100941.84;;;32.10;48.42
36798;BME280;22748;8.426;99.512;2023-02-28T11:36:01;100943.63;;;32.16;48.67
36798;BME280;22748;8.426;99.512;2023-02-28T11:38:36;100954.22;;;32.17;48.42
36798;BME280;22748;8.426;99.512;2023-02-28T11:41:20;100952.25;;;32.06;48.62
36798;BME280;22748;8.426;99.512;2023-02-28T11:44:09;100965.28;;;32.09;48.57
36798;BME280;22748;8.426;99.512;2023-02-28T11:46:49;100970.03;;;32.14;48.57
36798;BME280;22748;8.426;99.512;2023-02-28T11:49:31;100969.22;;;32.13;48.74
36798;BME280;22748;8.426;99.512;2023-02-28T11:52:10;100971.75;;;32.08;49.05
36798;BME280;22748;8.426;99.512;2023-02-28T11:55:04;100972.19;;;32.05;48.49
36798;BME280;22748;8.426;99.512;2023-02-28T11:57:51;100969.34;;;32.00;48.85
36798;BME280;22748;8.426;99.512;2023-02-28T12:00:35;100974.31;;;31.96;48.73
36798;BME280;22748;8.426;99.512;2023-02-28T12:03:17;100982.41;;;31.96;49.08
36798;BME280;22748;8.426;99.512;2023-02-28T12:05:57;100983.44;;;32.02;49.04
36798;BME280;22748;8.426;99.512;2023-02-28T12:08:43;100989.31;;;31.99;48.91
36798;BME280;22748;8.426;99.512;2023-02-28T12:11:29;100983.84;;;32.06;48.59
36798;BME280;22748;8.426;99.512;2023-02-28T12:14:38;100979.25;;;32.06;48.63
36798;BME280;22748;8.426;99.512;2023-02-28T12:17:22;100993.81;;;32.05;48.63
36798;BME280;22748;8.426;99.512;2023-02-28T12:20:05;100996.78;;;31.97;48.87
36798;BME280;22748;8.426;99.512;2023-02-28T12:22:44;100996.66;;;31.85;48.76
36798;BME280;22748;8.426;99.512;2023-02-28T12:25:39;101005.16;;;31.89;48.85
36798;BME280;22748;8.426;99.512;2023-02-28T12:28:21;101015.50;;;31.92;48.81
36798;BME280;22748;8.426;99.512;2023-02-28T12:30:56;101016.34;;;31.92;48.83
36798;BME280;22748;8.426;99.512;2023-02-28T12:33:36;101017.16;;;31.93;48.50
36798;BME280;22748;8.426;99.512;2023-02-28T12:36:11;101020.91;;;31.92;48.64
36798;BME280;22748;8.426;99.512;2023-02-28T12:38:48;101026.91;;;31.94;48.35
36798;BME280;22748;8.426;99.512;2023-02-28T12:41:24;101035.44;;;31.97;48.44
36798;BME280;22748;8.426;99.512;2023-02-28T12:44:02;101043.09;;;32.01;48.20
36798;BME280;22748;8.426;99.512;2023-02-28T12:46:35;101053.28;;;31.98;48.09
36798;BME280;22748;8.426;99.512;2023-02-28T12:49:09;101053.28;;;31.98;48.34
36798;BME280;22748;8.426;99.512;2023-02-28T12:51:43;101051.69;;;31.91;48.37
36798;BME280;22748;8.426;99.512;2023-02-28T12:54:19;101067.13;;;31.84;48.04
36798;BME280;22748;8.426;99.512;2023-02-28T12:56:56;101059.16;;;31.89;48.34
36798;BME280;22748;8.426;99.512;2023-02-28T12:59:35;101073.66;;;31.94;48.70
36798;BME280;22748;8.426;99.512;2023-02-28T13:11:29;101102.31;;;32.02;48.26
36798;BME280;22748;8.426;99.512;2023-02-28T13:14:04;101113.13;;;32.02;48.28
36798;BME280;22748;8.426;99.512;2023-02-28T13:17:01;101113.13;;;32.02;48.64
36798;BME280;22748;8.426;99.512;2023-02-28T13:19:34;101119.16;;;32.04;48.91
36798;BME280;22748;8.426;99.512;2023-02-28T13:22:05;101125.16;;;32.06;48.93
36798;BME280;22748;8.426;99.512;2023-02-28T13:24:48;101130.56;;;32.06;48.93
36798;BME280;22748;8.426;99.512;2023-02-28T13:27:33;101137.59;;;32.07;48.98
36798;BME280;22748;8.426;99.512;2023-02-28T13:33:25;101138.47;;;32.08;48.38
36798;BME280;22748;8.426;99.512;2023-02-28T13:36:25;101146.78;;;32.06;48.41
36798;BME280;22748;8.426;99.512;2023-02-28T13:39:02;101147.38;;;32.08;48.66
36798;BME280;22748;8.426;99.512;2023-02-28T13:41:49;101157.59;;;32.06;48.66
36798;BME280;22748;8.426;99.512;2023-02-28T13:44:24;101160.06;;;32.08;48.40
36798;BME280;22748;8.426;99.512;2023-02-28T13:50:15;101152.19;;;32.06;48.28
36798;BME280;22748;8.426;99.512;2023-02-28T13:55:46;101166.28;;;32.08;48.39